createdAt,value
2023-04-29T00:02:54.999Z,94.94
2023-04-29T00:07:58.028Z,94.91
2023-04-29T00:12:59.717Z,94.71
2023-04-29T00:18:01.702Z,94.66
2023-04-29T00:23:03.438Z,94.26
2023-04-29T00:28:06.015Z,93.84
2023-04-29T00:33:10.503Z,93.37
2023-04-29T00:38:15.107Z,93.75
2023-04-29T00:43:17.046Z,93.64
2023-04-29T00:48:18.727Z,94.26
2023-04-29T00:53:20.777Z,94.65
2023-04-29T00:58:24.015Z,95.03
2023-04-29T01:03:25.808Z,95.12
2023-04-29T01:08:41.715Z,95.31
2023-04-29T01:13:47.496Z,95.27
2023-04-29T01:18:58.929Z,94.90
2023-04-29T01:24:05.649Z,94.67
2023-04-29T01:29:28.596Z,94.83
2023-04-29T01:35:09.622Z,95.08
2023-04-29T01:40:12.886Z,95.82
2023-04-29T01:45:21.972Z,96.84
2023-04-29T01:50:24.224Z,97.55
2023-04-29T01:55:26.579Z,98.63
2023-04-29T02:00:43.445Z,99.52
2023-04-29T02:05:46.007Z,99.44
2023-04-29T02:10:55.320Z,99.86
2023-04-29T02:16:23.115Z,100.00
2023-04-29T02:21:35.232Z,100.00
2023-04-29T02:26:38.273Z,100.00
2023-04-29T02:31:40.082Z,100.00
2023-04-29T02:36:41.737Z,100.00
2023-04-29T02:41:43.454Z,100.00
2023-04-29T02:46:47.132Z,100.00
2023-04-29T02:51:49.978Z,100.00
2023-04-29T02:56:51.776Z,100.00
2023-04-29T03:01:54.638Z,100.00
2023-04-29T03:06:59.485Z,100.00
2023-04-29T03:12:03.041Z,100.00
2023-04-29T03:17:05.357Z,100.00
2023-04-29T03:22:08.538Z,100.00
2023-04-29T03:27:11.260Z,100.00
2023-04-29T03:32:12.999Z,100.00
2023-04-29T03:37:16.510Z,100.00
2023-04-29T03:42:22.323Z,100.00
2023-04-29T03:47:24.687Z,100.00
2023-04-29T03:52:26.503Z,100.00
2023-04-29T03:57:34.220Z,100.00
2023-04-29T04:02:36.386Z,100.00
2023-04-29T04:07:38.293Z,100.00
2023-04-29T04:12:59.907Z,100.00
2023-04-29T04:18:01.835Z,100.00
2023-04-29T04:23:03.711Z,100.00
2023-04-29T04:28:05.570Z,100.00
2023-04-29T04:33:27.806Z,100.00
2023-04-29T04:38:29.718Z,100.00
2023-04-29T04:43:31.532Z,100.00
2023-04-29T04:48:33.409Z,100.00
2023-04-29T04:53:35.257Z,100.00
2023-04-29T04:58:41.730Z,100.00
2023-04-29T05:03:43.680Z,100.00
2023-04-29T05:08:45.699Z,100.00
2023-04-29T05:13:49.114Z,100.00
2023-04-29T05:18:52.237Z,100.00
2023-04-29T05:23:54.091Z,100.00
2023-04-29T05:28:56.135Z,100.00
2023-04-29T05:33:59.081Z,100.00
2023-04-29T05:39:01.688Z,100.00
2023-04-29T05:44:04.260Z,100.00
2023-04-29T05:49:07.372Z,100.00
2023-04-29T05:54:09.027Z,100.00
2023-04-29T05:59:11.899Z,100.00
2023-04-29T06:04:15.895Z,100.00
2023-04-29T06:09:47.320Z,98.17
2023-04-29T06:14:49.370Z,97.54
2023-04-29T06:19:51.909Z,96.41
2023-04-29T06:24:53.907Z,94.64
2023-04-29T06:30:15.500Z,93.62
2023-04-29T06:35:17.252Z,92.63
2023-04-29T06:40:48.132Z,90.48
2023-04-29T06:46:08.534Z,91.13
2023-04-29T06:51:16.495Z,92.41
2023-04-29T06:56:18.411Z,92.64
2023-04-29T07:01:22.933Z,92.91
2023-04-29T07:06:25.889Z,92.29
2023-04-29T07:11:27.758Z,91.97
2023-04-29T07:16:29.426Z,91.07
2023-04-29T07:21:31.395Z,92.53
2023-04-29T07:26:33.527Z,94.01
2023-04-29T07:31:37.966Z,95.18
2023-04-29T07:36:40.117Z,95.22
2023-04-29T07:41:42.077Z,93.99
2023-04-29T07:46:44.561Z,92.54
2023-04-29T07:51:46.475Z,90.39
2023-04-29T07:56:48.325Z,89.53
2023-04-29T08:01:50.153Z,89.47
2023-04-29T08:06:52.043Z,90.06
2023-04-29T08:11:53.686Z,90.34
2023-04-29T08:16:55.767Z,89.07
2023-04-29T08:21:57.457Z,87.85
2023-04-29T08:26:59.347Z,85.13
2023-04-29T08:32:01.548Z,85.92
2023-04-29T08:37:03.618Z,87.80
2023-04-29T08:42:09.288Z,89.68
2023-04-29T08:47:11.102Z,90.03
2023-04-29T08:52:13.188Z,90.50
2023-04-29T08:57:14.921Z,89.10
2023-04-29T09:02:18.032Z,90.51
2023-04-29T09:07:19.791Z,90.74
2023-04-29T09:12:21.959Z,89.94
2023-04-29T09:17:43.726Z,90.73
2023-04-29T09:22:49.590Z,90.13
2023-04-29T09:27:51.804Z,91.51
2023-04-29T09:33:05.558Z,91.81
2023-04-29T09:38:15.011Z,91.87
2023-04-29T09:43:18.655Z,89.74
2023-04-29T09:48:20.348Z,89.49
2023-04-29T09:53:29.705Z,88.35
2023-04-29T09:58:37.887Z,86.82
2023-04-29T10:03:42.742Z,84.58
2023-04-29T10:08:44.818Z,83.72
2023-04-29T10:13:47.793Z,83.78
2023-04-29T10:18:55.476Z,82.05
2023-04-29T10:23:59.141Z,79.13
2023-04-29T10:29:01.068Z,80.69
2023-04-29T10:34:03.247Z,81.57
2023-04-29T10:39:08.595Z,82.36
2023-04-29T10:44:10.730Z,78.91
2023-04-29T10:49:13.333Z,76.69
2023-04-29T10:54:16.592Z,73.60
2023-04-29T10:59:43.477Z,74.54
2023-04-29T11:05:07.743Z,74.33
2023-04-29T11:10:09.519Z,74.80
2023-04-29T11:15:11.505Z,75.18
2023-04-29T11:20:16.471Z,74.63
2023-04-29T11:25:18.799Z,72.93
2023-04-29T11:30:21.198Z,72.77
2023-04-29T11:35:22.786Z,72.27
2023-04-29T11:40:24.605Z,73.40
2023-04-29T11:45:26.929Z,71.68
2023-04-29T11:50:29.578Z,71.76
2023-04-29T11:55:31.415Z,72.56
2023-04-29T12:00:33.265Z,71.63
2023-04-29T12:05:34.957Z,72.33
2023-04-29T12:10:36.964Z,74.42
2023-04-29T12:15:40.267Z,73.66
2023-04-29T12:20:42.109Z,75.18
2023-04-29T12:25:49.239Z,77.04
2023-04-29T12:30:53.812Z,77.91
2023-04-29T12:35:57.025Z,79.46
2023-04-29T12:40:59.762Z,79.38
2023-04-29T12:46:08.039Z,77.82
2023-04-29T12:51:10.774Z,76.83
2023-04-29T12:56:12.437Z,77.14
2023-04-29T13:01:18.389Z,78.35
2023-04-29T13:06:20.428Z,78.17
2023-04-29T13:11:22.088Z,79.34
2023-04-29T13:16:25.508Z,79.13
2023-04-29T13:21:32.099Z,80.33
2023-04-29T13:26:33.720Z,83.29
2023-04-29T13:31:35.529Z,85.19
2023-04-29T13:36:37.170Z,87.04
2023-04-29T13:41:42.211Z,88.24
2023-04-29T13:46:47.751Z,89.12
2023-04-29T13:52:26.313Z,89.02
2023-04-29T13:58:12.486Z,88.72
2023-04-29T14:02:39.193Z,88.63
2023-04-29T14:07:52.022Z,89.40
2023-04-29T14:12:54.454Z,88.52
2023-04-29T14:17:56.989Z,87.77
2023-04-29T14:23:02.808Z,87.94
2023-04-29T14:28:07.576Z,87.33
2023-04-29T14:33:20.660Z,86.76
2023-04-29T14:38:23.821Z,86.60
2023-04-29T14:43:26.501Z,86.48
2023-04-29T14:48:28.850Z,85.81
2023-04-29T14:53:36.109Z,85.63
2023-04-29T14:58:37.857Z,85.57
2023-04-29T15:03:45.592Z,85.14
2023-04-29T15:08:47.846Z,84.13
2023-04-29T15:13:52.064Z,83.84
2023-04-29T15:18:56.574Z,84.16
2023-04-29T15:23:58.184Z,82.27
2023-04-29T15:28:59.843Z,81.84
2023-04-29T15:34:01.994Z,81.29
2023-04-29T15:39:03.734Z,82.22
2023-04-29T15:44:08.117Z,81.88
2023-04-29T15:49:09.771Z,82.07
2023-04-29T15:54:14.116Z,81.99
2023-04-29T15:59:16.039Z,82.43
2023-04-29T16:04:18.118Z,82.74
2023-04-29T16:09:20.064Z,83.08
2023-04-29T16:14:21.766Z,83.63
2023-04-29T16:19:23.404Z,83.48
2023-04-29T16:24:25.104Z,83.13
2023-04-29T16:29:26.781Z,83.34
2023-04-29T16:34:29.119Z,82.84
2023-04-29T16:39:31.197Z,82.86
2023-04-29T16:44:32.869Z,82.68
2023-04-29T16:49:34.700Z,81.76
2023-04-29T16:54:36.530Z,82.10
2023-04-29T16:59:38.210Z,81.49
2023-04-29T17:04:40.995Z,81.98
2023-04-29T17:09:44.334Z,82.13
2023-04-29T17:14:46.965Z,82.18
2023-04-29T17:19:50.196Z,81.92
2023-04-29T17:24:52.115Z,82.37
2023-04-29T17:29:53.870Z,82.45
2023-04-29T17:34:56.441Z,82.01
2023-04-29T17:39:58.164Z,82.58
2023-04-29T17:44:59.869Z,82.31
2023-04-29T17:50:02.472Z,82.46
2023-04-29T17:55:05.152Z,82.36
2023-04-29T18:00:09.036Z,82.40
2023-04-29T18:05:10.754Z,83.06
2023-04-29T18:10:12.376Z,83.43
2023-04-29T18:15:16.495Z,83.81
2023-04-29T18:20:19.031Z,84.34
2023-04-29T18:25:20.794Z,84.85
2023-04-29T18:30:22.442Z,85.31
2023-04-29T18:35:24.085Z,85.38
2023-04-29T18:40:25.729Z,85.46
2023-04-29T18:45:27.397Z,85.49
2023-04-29T18:50:29.095Z,85.32
2023-04-29T18:55:30.709Z,85.49
2023-04-29T19:00:32.428Z,85.52
2023-04-29T19:05:34.936Z,85.59
2023-04-29T19:10:36.665Z,85.58
2023-04-29T19:15:38.915Z,85.89
2023-04-29T19:20:40.984Z,85.86
2023-04-29T19:25:42.650Z,85.38
2023-04-29T19:30:44.307Z,85.18
2023-04-29T19:35:46.009Z,85.16
2023-04-29T19:40:47.789Z,85.20
2023-04-29T19:45:49.756Z,85.00
2023-04-29T19:50:51.400Z,84.79
2023-04-29T19:55:56.337Z,84.80
2023-04-29T20:00:58.014Z,84.96
2023-04-29T20:05:59.992Z,84.66
2023-04-29T20:11:03.058Z,84.74
2023-04-29T20:16:04.850Z,84.94
2023-04-29T20:21:06.943Z,84.81
2023-04-29T20:26:08.616Z,85.17
2023-04-29T20:31:10.287Z,85.07
2023-04-29T20:36:11.949Z,84.72
2023-04-29T20:41:13.611Z,84.63
2023-04-29T20:46:16.774Z,84.64
2023-04-29T20:51:18.455Z,83.78
2023-04-29T20:56:20.171Z,83.77
2023-04-29T21:01:22.164Z,84.09
2023-04-29T21:06:26.523Z,83.70
2023-04-29T21:11:28.527Z,83.84
2023-04-29T21:16:30.180Z,83.70
2023-04-29T21:21:31.829Z,83.93
2023-04-29T21:26:33.733Z,83.97
2023-04-29T21:31:37.737Z,83.94
2023-04-29T21:36:42.265Z,83.99
2023-04-29T21:41:43.924Z,83.94
2023-04-29T21:46:45.710Z,83.87
2023-04-29T21:51:48.788Z,83.89
2023-04-29T21:56:53.462Z,83.69
2023-04-29T22:02:15.018Z,83.74
2023-04-29T22:07:23.851Z,83.82
2023-04-29T22:12:40.166Z,83.54
2023-04-29T22:17:54.945Z,83.78
2023-04-29T22:22:56.948Z,83.93
2023-04-29T22:27:58.585Z,83.92
2023-04-29T22:33:05.098Z,84.03
2023-04-29T22:38:06.944Z,83.80
2023-04-29T22:43:11.511Z,84.10
2023-04-29T22:48:13.163Z,83.84
2023-04-29T22:53:14.846Z,83.81
2023-04-29T22:58:16.525Z,83.74
2023-04-29T23:03:18.485Z,83.69
2023-04-29T23:08:20.654Z,83.48
2023-04-29T23:13:22.401Z,83.30
2023-04-29T23:18:24.056Z,83.38
2023-04-29T23:23:25.703Z,83.20
2023-04-29T23:28:27.489Z,83.58
2023-04-29T23:33:29.274Z,83.79
2023-04-29T23:38:30.937Z,84.52
2023-04-29T23:43:32.669Z,84.01
2023-04-29T23:48:34.317Z,84.02
2023-04-29T23:53:36.183Z,84.19
2023-04-29T23:58:37.837Z,84.49
